Flight Track Log - Related Links

Times and Time Zones

All times are in EDT time to prevent confusion due to time zone crossing. See the G52651 flight status page for this flight to view local times or setup timezone preferences in your user account.

Time Position Orientation Groundspeed Altitude Reporting Facility
EDT Latitude Longitude Course Direction KTS MPH feet Rate Location/Type
Wed 09:35:00 PM 29.0735 106.7885 169° South  Level Estimated
Wed 09:36:00 PM 28.9813 106.8094 169° South  Level Estimated
Wed 09:37:00 PM 28.8890 106.8302 169° South  Level Estimated
Wed 09:38:00 PM 28.7967 106.8511 169° South  Level Estimated
Wed 09:39:00 PM 28.7044 106.8719 169° South  Level Estimated
Wed 09:40:00 PM 28.6121 106.8926 169° South  Level Estimated
Wed 09:41:00 PM 28.5198 106.9134 169° South  Level Estimated
Wed 09:42:00 PM 28.4276 106.9341 169° South  Level Estimated
Wed 09:43:00 PM 28.3353 106.9547 169° South  Level Estimated
Wed 09:44:00 PM 28.2430 106.9753 169° South  Level Estimated
Wed 09:45:00 PM 28.1507 106.9959 169° South  Level Estimated
Wed 09:46:00 PM 28.0583 107.0164 169° South  Level Estimated
Wed 09:47:00 PM 27.9660 107.0370 169° South  Level Estimated
Wed 09:48:00 PM 27.8737 107.0574 169° South  Level Estimated
Wed 09:49:00 PM 27.7814 107.0779 169° South  Level Estimated
Wed 09:50:00 PM 27.6891 107.0983 169° South  Level Estimated
Wed 09:51:00 PM 27.5968 107.1187 169° South  Level Estimated
Wed 09:52:00 PM 27.5044 107.1390 169° South  Level Estimated
Wed 09:53:00 PM 27.4121 107.1593 169° South  Level Estimated
Wed 09:54:00 PM 27.3198 107.1796 169° South  Level Estimated
Wed 09:55:00 PM 27.2275 107.1998 169° South  Level Estimated
Wed 09:56:00 PM 27.1351 107.2200 169° South  Level Estimated
Wed 09:57:00 PM 27.0428 107.2402 169° South  Level Estimated
Wed 09:58:00 PM 26.9504 107.2603 169° South  Level Estimated
Wed 09:59:00 PM 26.8581 107.2804 169° South  Level Estimated
Wed 10:00:00 PM 26.7658 107.3005 169° South  Level Estimated
Wed 10:01:00 PM 26.6734 107.3205 169° South  Level Estimated
Wed 10:02:00 PM 26.5811 107.3406 169° South  Level Estimated
Wed 10:03:00 PM 26.4887 107.3605 169° South  Level Estimated
Wed 10:04:00 PM 26.3963 107.3805 169° South  Level Estimated
Wed 10:05:00 PM 26.3040 107.4004 169° South  Level Estimated
Wed 10:06:00 PM 26.2116 107.4202 169° South  Level Estimated
Wed 10:07:00 PM 26.1192 107.4401 169° South  Level Estimated
Wed 10:08:00 PM 26.0269 107.4599 169° South  Level Estimated
Wed 10:09:00 PM 25.9345 107.4797 169° South  Level Estimated
Wed 10:10:00 PM 25.8421 107.4995 169° South  Level Estimated
Wed 10:11:00 PM 25.7498 107.5192 169° South  Level Estimated
Wed 10:12:00 PM 25.6574 107.5389 169° South  Level Estimated
Wed 10:13:00 PM 25.5650 107.5585 169° South  Level Estimated
Wed 10:14:00 PM 25.4726 107.5781 169° South  Level Estimated
Wed 10:15:00 PM 25.3802 107.5977 169° South  Level Estimated
Wed 10:16:00 PM 25.2878 107.6173 169° South  Level Estimated
Wed 10:17:00 PM 25.1954 107.6369 169° South  Level Estimated
Wed 10:18:00 PM 25.1030 107.6564 169° South  Level Estimated
Wed 10:19:00 PM 25.0106 107.6758 169° South  Level Estimated
Wed 10:20:00 PM 24.9182 107.6953 169° South  Level Estimated
Wed 10:21:00 PM 24.8258 107.7147 169° South  Level Estimated
Wed 10:22:00 PM 24.7334 107.7341 169° South  Level Estimated
Wed 10:23:00 PM 24.6410 107.7535 169° South  Level Estimated
Wed 10:24:00 PM 24.5486 107.7728 169° South  Level Estimated
Wed 10:25:00 PM 24.4562 107.7922 169° South  Level Estimated
Wed 10:26:00 PM 24.3638 107.8114 169° South  Level Estimated
Wed 10:27:00 PM 24.2714 107.8307 169° South  Level Estimated
Wed 10:28:00 PM 24.1789 107.8499 169° South  Level Estimated
Wed 10:29:00 PM 24.0865 107.8691 169° South  Level Estimated
Wed 10:30:00 PM 23.9941 107.8883 169° South  Level Estimated
Wed 10:31:00 PM 23.9016 107.9074 169° South  Level Estimated
Wed 10:32:00 PM 23.8092 107.9265 169° South  Level Estimated
Wed 10:33:00 PM 23.7168 107.9456 169° South  Level Estimated
Wed 10:34:00 PM 23.6244 107.9647 169° South  Level Estimated
Wed 10:35:00 PM 23.5319 107.9837 169° South  Level Estimated
Wed 10:36:00 PM 23.4395 108.0027 169° South  Level Estimated
Wed 10:37:00 PM 23.3470 108.0217 169° South  Level Estimated
Wed 10:38:00 PM 23.2546 108.0407 169° South  Level Estimated
Wed 10:39:00 PM 23.1621 108.0596 169° South  Level Estimated
Wed 10:40:00 PM 23.0697 108.0785 169° South  Level Estimated
Wed 10:41:00 PM 22.9772 108.0974 169° South  Level Estimated
Wed 10:42:00 PM 22.8848 108.1162 169° South  Level Estimated
Wed 10:43:00 PM 22.7923 108.1350 169° South  Level Estimated
Wed 10:44:00 PM 22.6999 108.1538 169° South  Level Estimated
Wed 10:45:00 PM 22.6083 108.1724 169° South  Level Estimated
Wed 10:46:00 PM 22.6083 108.1724 148° Southeast  Level Estimated
Wed 10:47:00 PM 22.6083 108.1724 148° Southeast  Level Estimated
Wed 10:48:00 PM 22.6083 108.1724 148° Southeast  Level Estimated
Wed 10:49:00 PM 22.6083 108.1724 148° Southeast  Level Estimated
Wed 10:50:00 PM 22.6083 108.1724 148° Southeast  Level Estimated
Wed 10:51:00 PM 22.6083 108.1724 148° Southeast  Level Estimated
Wed 10:52:00 PM 22.6083 108.1724 148° Southeast  Level Estimated
Wed 10:53:00 PM 22.6083 108.1724 148° Southeast  Level Estimated
Wed 10:54:00 PM 22.6083 108.1724 148° Southeast  Level Estimated
Wed 10:55:00 PM 22.6083 108.1724 148° Southeast  Level Estimated
Wed 10:56:00 PM 22.6083 108.1724 148° Southeast  Level Estimated
Wed 10:57:00 PM 22.6083 108.1724 148° Southeast  Level Estimated
Wed 10:58:00 PM 22.6083 108.1724 148° Southeast  Level Estimated
Wed 10:59:00 PM 22.6083 108.1724 148° Southeast  Level Estimated
Wed 11:00:00 PM 22.6083 108.1724 148° Southeast  Level Estimated
Wed 11:01:00 PM 22.6083 108.1724 148° Southeast  Level Estimated

Login

Don't have an account? Register now (free) for customized features, flight alerts, and more!